createdAt,value
2016-04-07T00:01:21.011Z,9.74
2016-04-07T00:02:21.014Z,9.64
2016-04-07T00:03:21.236Z,9.51
2016-04-07T00:04:21.051Z,9.61
2016-04-07T00:05:21.053Z,9.48
2016-04-07T00:06:21.025Z,9.53
2016-04-07T00:07:21.028Z,9.51
2016-04-07T00:08:21.297Z,9.57
2016-04-07T00:09:21.096Z,9.56
2016-04-07T00:10:21.286Z,9.57
2016-04-07T00:11:21.070Z,9.57
2016-04-07T00:12:21.042Z,9.57
2016-04-07T00:13:21.247Z,9.6
2016-04-07T00:14:21.047Z,9.56
2016-04-07T00:15:20.612Z,9.6
2016-04-07T00:16:21.076Z,9.47
2016-04-07T00:17:21.170Z,9.47
2016-04-07T00:18:21.170Z,9.51
2016-04-07T00:19:21.217Z,9.53
2016-04-07T00:20:21.264Z,9.48
2016-04-07T00:21:21.701Z,9.47
2016-04-07T00:22:21.330Z,9.46
2016-04-07T00:23:21.457Z,9.47
2016-04-07T00:25:21.400Z,9.39
2016-04-07T00:26:21.601Z,9.5
2016-04-07T00:27:21.406Z,9.46
2016-04-07T00:28:21.633Z,9.51
2016-04-07T00:30:21.431Z,9.43
2016-04-07T00:31:21.438Z,9.46
2016-04-07T00:32:21.458Z,9.43
2016-04-07T00:33:21.447Z,9.42
2016-04-07T00:34:21.482Z,9.4
2016-04-07T00:35:21.675Z,9.47
2016-04-07T00:36:21.710Z,9.4
2016-04-07T00:37:35.964Z,9.47
2016-04-07T00:38:21.811Z,9.36
2016-04-07T00:39:21.674Z,9.43
2016-04-07T00:40:21.474Z,9.46
2016-04-07T00:41:21.509Z,9.42
2016-04-07T00:42:21.464Z,9.48
2016-04-07T00:43:21.499Z,9.47
2016-04-07T00:44:21.674Z,9.48
2016-04-07T00:45:21.473Z,9.38
2016-04-07T00:46:21.680Z,9.46
2016-04-07T00:47:21.682Z,9.38
2016-04-07T00:48:21.481Z,9.38
2016-04-07T00:49:21.515Z,9.38
2016-04-07T00:50:21.940Z,9.39
2016-04-07T00:51:21.943Z,9.4
2016-04-07T00:52:21.742Z,9.39
2016-04-07T00:53:21.526Z,9.42
2016-04-07T00:54:21.920Z,9.39
2016-04-07T00:55:21.970Z,9.47
2016-04-07T00:56:21.050Z,9.4
2016-04-07T00:57:21.553Z,9.33
2016-04-07T00:58:21.525Z,9.42
2016-04-07T00:59:21.730Z,9.36
2016-04-07T01:00:21.936Z,9.43
2016-04-07T01:01:21.517Z,9.4
2016-04-07T01:02:21.536Z,9.33
2016-04-07T01:03:21.053Z,9.35
2016-04-07T01:04:35.635Z,9.36
2016-04-07T01:06:21.734Z,9.38
2016-04-07T01:07:21.533Z,9.32
2016-04-07T01:08:21.646Z,9.31
2016-04-07T01:09:21.555Z,9.28
2016-04-07T01:10:21.776Z,9.33
2016-04-07T01:11:21.763Z,9.33
2016-04-07T01:12:21.782Z,9.24
2016-04-07T01:13:21.549Z,9.24
2016-04-07T01:14:21.583Z,9.24
2016-04-07T01:15:21.790Z,9.26
2016-04-07T01:16:21.573Z,9.2
2016-04-07T01:17:21.762Z,9.24
2016-04-07T01:18:21.812Z,9.2
2016-04-07T01:19:21.581Z,9.26
2016-04-07T01:20:35.693Z,9.28
2016-04-07T01:21:21.587Z,9.26
2016-04-07T01:22:21.589Z,9.24
2016-04-07T01:23:21.592Z,9.26
2016-04-07T01:24:21.625Z,9.29
2016-04-07T01:25:21.581Z,9.15
2016-04-07T01:26:21.850Z,9.21
2016-04-07T01:27:21.806Z,9.2
2016-04-07T01:28:21.792Z,9.18
2016-04-07T01:29:21.592Z,9.24
2016-04-07T01:30:21.814Z,9.14
2016-04-07T01:31:21.597Z,9.32
2016-04-07T01:32:21.616Z,9.21
2016-04-07T01:33:21.603Z,9.2
2016-04-07T01:34:21.605Z,9.17
2016-04-07T01:35:21.608Z,9.15
2016-04-07T01:36:35.705Z,9.28
2016-04-07T01:37:21.630Z,9.13
2016-04-07T01:38:21.617Z,9.15
2016-04-07T01:39:21.619Z,9.17
2016-04-07T01:40:21.653Z,9.15
2016-04-07T01:41:21.609Z,9.11
2016-04-07T01:42:20.893Z,9.13
2016-04-07T01:43:21.630Z,9.08
2016-04-07T01:44:21.836Z,9.18
2016-04-07T01:45:21.635Z,9.1
2016-04-07T01:46:21.638Z,9.1
2016-04-07T01:47:21.640Z,9.14
2016-04-07T01:48:21.831Z,9.17
2016-04-07T01:49:21.677Z,9.15
2016-04-07T01:50:21.649Z,9.11
2016-04-07T01:51:21.651Z,9.08
2016-04-07T01:52:21.842Z,9.1
2016-04-07T01:53:21.657Z,9.11
2016-04-07T01:54:21.659Z,9.14
2016-04-07T01:55:21.490Z,9.13
2016-04-07T01:56:21.665Z,9.13
2016-04-07T01:57:21.667Z,9.1
2016-04-07T01:58:21.670Z,9.13
2016-04-07T01:59:21.657Z,9.13
2016-04-07T02:00:21.660Z,9.1
2016-04-07T02:01:22.319Z,9.11
2016-04-07T02:02:21.197Z,9.08
2016-04-07T02:03:21.668Z,9.08
2016-04-07T02:04:21.686Z,9.1
2016-04-07T02:05:21.674Z,9.14
2016-04-07T02:06:21.582Z,9.17
2016-04-07T02:07:21.882Z,9.15
2016-04-07T02:08:21.682Z,9.13
2016-04-07T02:09:21.700Z,9.17
2016-04-07T02:10:21.703Z,9.14
2016-04-07T02:11:21.690Z,9.13
2016-04-07T02:12:21.692Z,9.11
2016-04-07T02:13:21.680Z,9.15
2016-04-07T02:14:21.901Z,9.29
2016-04-07T02:15:21.701Z,9.13
2016-04-07T02:16:21.719Z,9.17
2016-04-07T02:17:22.299Z,9.18
2016-04-07T02:18:22.177Z,9.23
2016-04-07T02:19:21.743Z,9.21
2016-04-07T02:20:21.729Z,9.18
2016-04-07T02:21:21.717Z,9.13
2016-04-07T02:22:21.704Z,9.13
2016-04-07T02:23:22.128Z,9.2
2016-04-07T02:24:21.709Z,9.23
2016-04-07T02:25:21.743Z,9.17
2016-04-07T02:26:21.715Z,9.28
2016-04-07T02:27:21.717Z,9.23
2016-04-07T02:28:21.954Z,9.26
2016-04-07T02:29:21.754Z,9.29
2016-04-07T02:30:21.757Z,9.29
2016-04-07T02:31:21.744Z,9.35
2016-04-07T02:32:21.261Z,9.31
2016-04-07T02:33:21.733Z,9.23
2016-04-07T02:34:21.752Z,9.36
2016-04-07T02:35:21.973Z,9.35
2016-04-07T02:36:21.758Z,9.29
2016-04-07T02:37:21.775Z,9.39
2016-04-07T02:38:21.762Z,9.42
2016-04-07T02:39:21.749Z,9.48
2016-04-07T02:40:21.283Z,9.48
2016-04-07T02:41:21.801Z,9.4
2016-04-07T02:42:21.773Z,9.51
2016-04-07T02:43:21.776Z,9.46
2016-04-07T02:44:21.763Z,9.53
2016-04-07T02:45:21.765Z,9.51
2016-04-07T02:46:21.768Z,9.54
2016-04-07T02:47:22.021Z,9.51
2016-04-07T02:48:21.790Z,9.51
2016-04-07T02:49:21.792Z,9.54
2016-04-07T02:50:22.216Z,9.65
2016-04-07T02:51:21.813Z,9.74
2016-04-07T02:52:21.815Z,9.69
2016-04-07T02:53:21.803Z,9.72
2016-04-07T02:54:21.790Z,9.71
2016-04-07T02:55:21.824Z,9.69
2016-04-07T02:56:21.795Z,9.74
2016-04-07T02:57:22.001Z,9.78
2016-04-07T02:58:21.347Z,9.81
2016-04-07T02:59:21.834Z,9.86
2016-04-07T03:00:21.806Z,9.83
2016-04-07T03:01:35.918Z,9.83
2016-04-07T03:02:21.327Z,9.83
2016-04-07T03:03:21.814Z,9.81
2016-04-07T03:04:21.833Z,9.96
2016-04-07T03:05:21.836Z,9.94
2016-04-07T03:06:21.869Z,9.94
2016-04-07T03:07:21.872Z,9.94
2016-04-07T03:08:21.844Z,9.96
2016-04-07T03:09:21.830Z,9.97
2016-04-07T03:10:21.849Z,10.07
2016-04-07T03:11:21.836Z,10.08
2016-04-07T03:12:21.855Z,10.12
2016-04-07T03:13:21.856Z,10.09
2016-04-07T03:14:21.859Z,10.17
2016-04-07T03:15:21.862Z,10.18
2016-04-07T03:16:21.865Z,10.23
2016-04-07T03:17:22.101Z,10.17
2016-04-07T03:18:21.385Z,10.25
2016-04-07T03:19:21.872Z,10.2
2016-04-07T03:20:21.876Z,10.23
2016-04-07T03:21:21.878Z,10.29
2016-04-07T03:22:21.881Z,10.26
2016-04-07T03:23:21.883Z,10.29
2016-04-07T03:24:22.214Z,10.34
2016-04-07T03:25:21.904Z,10.3
2016-04-07T03:26:21.907Z,10.34
2016-04-07T03:27:21.956Z,10.3
2016-04-07T03:28:21.928Z,10.32
2016-04-07T03:29:22.118Z,10.27
2016-04-07T03:30:21.917Z,10.4
2016-04-07T03:31:21.951Z,10.38
2016-04-07T03:32:21.923Z,10.4
2016-04-07T03:33:21.942Z,10.34
2016-04-07T03:34:22.022Z,10.41
2016-04-07T03:35:21.947Z,10.4
2016-04-07T03:36:22.153Z,10.42
2016-04-07T03:37:21.937Z,10.42
2016-04-07T03:38:22.174Z,10.44
2016-04-07T03:39:21.942Z,10.42
2016-04-07T03:40:21.945Z,10.56
2016-04-07T03:41:21.978Z,10.48
2016-04-07T03:42:21.966Z,10.51
2016-04-07T03:43:21.983Z,10.42
2016-04-07T03:44:22.175Z,10.45
2016-04-07T03:45:21.989Z,10.48
2016-04-07T03:46:22.180Z,10.45
2016-04-07T03:47:22.183Z,10.61
2016-04-07T03:48:36.075Z,10.59
2016-04-07T03:49:36.078Z,10.53
2016-04-07T03:50:21.987Z,10.47
2016-04-07T03:51:21.990Z,10.51
2016-04-07T03:52:22.007Z,10.56
2016-04-07T03:53:36.324Z,10.48
2016-04-07T03:54:22.405Z,10.53
2016-04-07T03:55:36.313Z,10.56
2016-04-07T03:56:22.018Z,10.56
2016-04-07T03:57:22.006Z,10.55
2016-04-07T03:58:22.040Z,10.59
2016-04-07T03:59:22.058Z,10.56
2016-04-07T04:00:22.061Z,10.6
2016-04-07T04:01:22.282Z,10.56
2016-04-07T04:02:22.066Z,10.67
2016-04-07T04:03:21.803Z,10.68
2016-04-07T04:04:22.040Z,10.7
2016-04-07T04:05:22.059Z,10.64
2016-04-07T04:06:22.061Z,10.64
2016-04-07T04:07:22.064Z,10.63
2016-04-07T04:08:22.083Z,10.63
2016-04-07T04:09:22.273Z,10.63
2016-04-07T04:10:22.291Z,10.64
2016-04-07T04:11:22.075Z,10.66
2016-04-07T04:12:22.078Z,10.67
2016-04-07T04:13:22.080Z,10.71
2016-04-07T04:14:22.099Z,10.78
2016-04-07T04:15:22.086Z,10.74
2016-04-07T04:16:22.088Z,10.78
2016-04-07T04:17:22.091Z,10.82
2016-04-07T04:18:22.094Z,10.81
2016-04-07T04:19:22.113Z,10.81
2016-04-07T04:20:22.115Z,10.85
2016-04-07T04:21:22.305Z,10.81
2016-04-07T04:22:22.371Z,10.89
2016-04-07T04:23:22.123Z,10.82
2016-04-07T04:24:22.173Z,10.88
2016-04-07T04:25:22.144Z,10.86
2016-04-07T04:26:22.131Z,10.84
2016-04-07T04:27:22.134Z,10.81
2016-04-07T04:28:22.184Z,10.88
2016-04-07T04:29:22.155Z,10.86
2016-04-07T04:30:36.438Z,10.91
2016-04-07T04:31:22.362Z,10.92
2016-04-07T04:32:22.209Z,11
2016-04-07T04:33:22.181Z,10.89
2016-04-07T04:34:21.700Z,10.91
2016-04-07T04:35:22.155Z,10.91
2016-04-07T04:36:22.173Z,10.99
2016-04-07T04:37:22.222Z,11.02
2016-04-07T04:38:22.178Z,11.04
2016-04-07T04:39:22.197Z,11.03
2016-04-07T04:40:22.200Z,11.02
2016-04-07T04:41:22.187Z,11.06
2016-04-07T04:42:22.408Z,11.02
2016-04-07T04:43:22.207Z,11.06
2016-04-07T04:44:22.210Z,11.07
2016-04-07T04:45:22.229Z,11.03
2016-04-07T04:46:22.216Z,11.04
2016-04-07T04:47:22.452Z,11.09
2016-04-07T04:48:22.252Z,11.04
2016-04-07T04:49:22.240Z,11.04
2016-04-07T04:50:22.258Z,11.09
2016-04-07T04:51:22.260Z,11.17
2016-04-07T04:52:22.279Z,11.1
2016-04-07T04:53:22.266Z,11.17
2016-04-07T04:54:22.097Z,11.19
2016-04-07T04:55:22.256Z,11.18
2016-04-07T04:56:22.493Z,11.19
2016-04-07T04:57:22.293Z,11.22
2016-04-07T04:58:22.279Z,11.25
2016-04-07T04:59:22.501Z,11.28
2016-04-07T05:01:22.303Z,11.33
2016-04-07T05:02:22.540Z,11.35
2016-04-07T05:03:22.324Z,11.36
2016-04-07T05:04:36.623Z,11.25
2016-04-07T05:05:22.361Z,11.36
2016-04-07T05:06:22.332Z,11.25
2016-04-07T05:07:22.320Z,11.49
2016-04-07T05:08:22.322Z,11.47
2016-04-07T05:09:22.325Z,11.4
2016-04-07T05:10:22.342Z,11.47
2016-04-07T05:11:22.361Z,11.57
2016-04-07T05:12:22.598Z,11.47
2016-04-07T05:13:22.350Z,11.54
2016-04-07T05:14:22.417Z,11.57
2016-04-07T05:15:22.356Z,11.57
2016-04-07T05:16:22.391Z,11.52
2016-04-07T05:17:22.143Z,11.61
2016-04-07T05:18:22.380Z,11.69
2016-04-07T05:19:22.227Z,11.75
2016-04-07T05:20:22.401Z,11.6
2016-04-07T05:21:22.404Z,11.62
2016-04-07T05:22:36.735Z,11.73
2016-04-07T05:23:22.456Z,11.67
2016-04-07T05:24:22.412Z,11.73
2016-04-07T05:25:21.961Z,11.76
2016-04-07T05:26:22.698Z,11.8
2016-04-07T05:27:22.435Z,11.78
2016-04-07T05:28:22.626Z,11.86
2016-04-07T05:29:22.629Z,11.91
2016-04-07T05:30:22.459Z,11.91
2016-04-07T05:31:21.728Z,11.98
2016-04-07T05:32:22.464Z,11.94
2016-04-07T05:33:22.545Z,12.09
2016-04-07T05:34:22.704Z,12.14
2016-04-07T05:35:22.301Z,12.13
2016-04-07T05:36:22.678Z,12.13
2016-04-07T05:37:22.509Z,12.2
2016-04-07T05:39:22.640Z,12.19
2016-04-07T05:40:22.502Z,12.24
2016-04-07T05:41:22.489Z,12.29
2016-04-07T05:42:22.741Z,12.32
2016-04-07T05:43:22.525Z,12.28
2016-04-07T05:44:22.544Z,12.28
2016-04-07T05:45:22.531Z,12.32
2016-04-07T05:47:22.567Z,12.39
2016-04-07T05:48:22.570Z,12.35
2016-04-07T05:49:22.777Z,12.35
2016-04-07T05:50:22.763Z,12.39
2016-04-07T05:52:22.988Z,12.47
2016-04-07T05:53:22.583Z,12.42
2016-04-07T05:54:22.774Z,12.45
2016-04-07T05:55:22.605Z,12.47
2016-04-07T05:56:22.827Z,12.47
2016-04-07T05:57:22.594Z,12.46
2016-04-07T05:58:22.628Z,12.5
2016-04-07T05:59:22.849Z,12.5
2016-04-07T06:00:36.743Z,12.52
2016-04-07T06:01:22.542Z,12.56
2016-04-07T06:02:22.826Z,12.59
2016-04-07T06:03:22.673Z,12.5
2016-04-07T06:04:22.660Z,12.54
2016-04-07T06:05:22.881Z,12.56
2016-04-07T06:06:22.681Z,12.68
2016-04-07T06:07:22.699Z,12.6
2016-04-07T06:08:22.691Z,12.59
2016-04-07T06:09:22.600Z,12.59
2016-04-07T06:10:22.712Z,12.59
2016-04-07T06:11:22.715Z,12.62
2016-04-07T06:12:36.796Z,12.71
2016-04-07T06:13:22.705Z,12.71
2016-04-07T06:14:22.942Z,12.68
2016-04-07T06:15:36.819Z,12.78
2016-04-07T06:16:22.244Z,12.71
2016-04-07T06:17:36.841Z,12.83
2016-04-07T06:18:22.968Z,12.86
2016-04-07T06:19:22.736Z,12.9
2016-04-07T06:20:22.755Z,12.92
2016-04-07T06:21:23.196Z,12.86
2016-04-07T06:22:22.760Z,12.9
2016-04-07T06:23:22.779Z,12.95
2016-04-07T06:24:22.953Z,12.97
2016-04-07T06:25:22.784Z,13.05
2016-04-07T06:26:22.786Z,13.1
2016-04-07T06:27:22.804Z,13.08
2016-04-07T06:28:22.807Z,13.15
2016-04-07T06:29:22.826Z,13.2
2016-04-07T06:30:22.812Z,13.3
2016-04-07T06:31:22.831Z,13.29
2016-04-07T06:32:22.865Z,13.32
2016-04-07T06:33:22.836Z,13.45
2016-04-07T06:34:22.855Z,13.39
2016-04-07T06:35:22.904Z,13.46
2016-04-07T06:36:22.861Z,13.42
2016-04-07T06:37:22.878Z,13.45
2016-04-07T06:38:22.881Z,13.57
2016-04-07T06:39:23.133Z,13.57
2016-04-07T06:40:22.903Z,13.57
2016-04-07T06:41:22.905Z,13.69
2016-04-07T06:42:22.955Z,13.7
2016-04-07T06:43:22.926Z,13.7
2016-04-07T06:44:22.945Z,13.81
2016-04-07T06:45:22.931Z,13.87
2016-04-07T06:46:22.949Z,13.87
2016-04-07T06:47:37.061Z,13.87
2016-04-07T06:48:22.986Z,13.82
2016-04-07T06:49:22.989Z,13.77
2016-04-07T06:50:22.977Z,13.88
2016-04-07T06:51:23.213Z,13.89
2016-04-07T06:52:22.997Z,13.87
2016-04-07T06:53:23.624Z,13.85
2016-04-07T06:54:23.455Z,13.89
2016-04-07T06:55:23.020Z,13.91
2016-04-07T06:56:23.039Z,13.88
2016-04-07T06:57:23.057Z,13.99
2016-04-07T06:58:23.045Z,14
2016-04-07T07:00:23.065Z,14.12
2016-04-07T07:01:23.068Z,14.21
2016-04-07T07:02:23.086Z,14.33
2016-04-07T07:03:23.089Z,14.39
2016-04-07T07:04:23.092Z,14.5
2016-04-07T07:05:23.126Z,14.51
2016-04-07T07:06:23.113Z,14.57
2016-04-07T07:07:23.147Z,14.58
2016-04-07T07:08:23.134Z,14.65
2016-04-07T07:09:23.278Z,14.68
2016-04-07T07:10:23.139Z,14.69
2016-04-07T07:11:23.158Z,14.73
2016-04-07T07:12:23.191Z,14.84
2016-04-07T07:13:37.475Z,14.8
2016-04-07T07:14:37.728Z,14.94
2016-04-07T07:15:23.419Z,14.91
2016-04-07T07:16:22.953Z,14.88
2016-04-07T07:17:23.283Z,14.95
2016-04-07T07:18:23.255Z,14.91
2016-04-07T07:19:23.241Z,14.88
2016-04-07T07:20:23.244Z,14.86
2016-04-07T07:21:23.294Z,14.81
2016-04-07T07:22:37.577Z,14.81
2016-04-07T07:23:23.268Z,14.83
2016-04-07T07:24:23.364Z,14.91
2016-04-07T07:25:23.929Z,14.89
2016-04-07T07:26:24.229Z,14.94
2016-04-07T07:27:24.044Z,14.92
2016-04-07T07:28:25.938Z,14.99
2016-04-07T07:29:23.909Z,14.94
2016-04-07T07:30:24.709Z,14.81
2016-04-07T07:31:24.476Z,14.95
2016-04-07T07:32:24.386Z,14.98
2016-04-07T07:33:23.863Z,14.98
2016-04-07T07:34:23.381Z,14.88
2016-04-07T07:35:23.665Z,15.02
2016-04-07T07:36:24.105Z,14.98
2016-04-07T07:37:23.827Z,14.98
2016-04-07T07:38:24.096Z,15.01
2016-04-07T07:39:24.009Z,14.99
2016-04-07T07:40:23.825Z,15.02
2016-04-07T07:41:23.577Z,15.06
2016-04-07T07:42:23.986Z,15.03
2016-04-07T07:43:24.270Z,15.03
2016-04-07T07:44:23.803Z,14.96
2016-04-07T07:45:24.103Z,15.06
2016-04-07T07:46:24.106Z,14.98
2016-04-07T07:47:23.765Z,15.06
2016-04-07T07:48:23.784Z,15.01
2016-04-07T07:49:23.724Z,15.07
2016-04-07T07:50:23.555Z,15.1
2016-04-07T07:51:24.135Z,15.06
2016-04-07T07:52:23.544Z,15.13
2016-04-07T07:53:24.155Z,15.23
2016-04-07T07:54:24.315Z,15.16
2016-04-07T07:55:25.146Z,15.2
2016-04-07T07:56:24.398Z,15.29
2016-04-07T07:57:24.323Z,15.28
2016-04-07T07:58:24.263Z,15.25
2016-04-07T07:59:24.141Z,15.17
2016-04-07T08:00:24.066Z,15.29
2016-04-07T08:01:25.912Z,15.27
2016-04-07T08:02:24.227Z,15.2
2016-04-07T08:03:23.433Z,15.19
2016-04-07T08:04:24.357Z,15.2
2016-04-07T08:05:25.173Z,15.16
2016-04-07T08:06:23.690Z,15.19
2016-04-07T08:07:23.678Z,15.23
2016-04-07T08:08:23.696Z,15.21
2016-04-07T08:09:23.715Z,15.21
2016-04-07T08:10:24.109Z,15.14
2016-04-07T08:11:24.095Z,15.19
2016-04-07T08:12:23.973Z,15.21
2016-04-07T08:13:24.053Z,15.2
2016-04-07T08:14:24.072Z,15.13
2016-04-07T08:16:24.078Z,15.14
2016-04-07T08:17:24.050Z,14.91
2016-04-07T08:18:24.052Z,14.94
2016-04-07T08:19:24.133Z,14.99
2016-04-07T08:20:23.994Z,15.07
2016-04-07T08:21:24.810Z,14.99
2016-04-07T08:22:24.047Z,14.99
2016-04-07T08:23:23.815Z,15.02
2016-04-07T08:24:24.286Z,14.92
2016-04-07T08:25:24.288Z,14.96
2016-04-07T08:26:24.182Z,14.94
2016-04-07T08:27:24.263Z,14.98
2016-04-07T08:28:24.344Z,14.81
2016-04-07T08:29:24.113Z,14.8
2016-04-07T08:30:24.444Z,14.95
2016-04-07T08:31:24.337Z,14.83
2016-04-07T08:32:24.496Z,14.84
2016-04-07T08:33:24.263Z,14.84
2016-04-07T08:34:24.282Z,14.75
2016-04-07T08:35:24.581Z,14.75
2016-04-07T08:36:24.179Z,14.77
2016-04-07T08:37:24.276Z,14.55
2016-04-07T08:38:24.263Z,14.54
2016-04-07T08:39:24.438Z,14.54
2016-04-07T08:41:24.208Z,14.54
2016-04-07T08:42:24.335Z,14.55
2016-04-07T08:43:24.119Z,14.52
2016-04-07T08:44:24.341Z,14.58
2016-04-07T08:45:24.204Z,14.54
2016-04-07T08:46:24.628Z,14.6
2016-04-07T08:47:24.255Z,14.58
2016-04-07T08:48:24.243Z,14.6
2016-04-07T08:49:24.276Z,14.65
2016-04-07T08:50:38.263Z,14.58
2016-04-07T08:51:24.531Z,14.6
2016-04-07T08:52:24.503Z,14.64
2016-04-07T08:53:37.787Z,14.64
2016-04-07T08:54:24.368Z,14.61
2016-04-07T08:55:24.589Z,14.58
2016-04-07T08:56:24.139Z,14.57
2016-04-07T08:57:24.376Z,14.58
2016-04-07T08:58:24.331Z,14.64
2016-04-07T08:59:24.444Z,14.64
2016-04-07T09:00:24.384Z,14.72
2016-04-07T09:01:24.434Z,14.75
2016-04-07T09:03:24.923Z,14.89
2016-04-07T09:04:24.301Z,14.92
2016-04-07T09:05:24.475Z,14.92
2016-04-07T09:06:24.806Z,15.02
2016-04-07T09:07:24.590Z,15.06
2016-04-07T09:08:24.468Z,15.03
2016-04-07T09:09:23.877Z,15.11
2016-04-07T09:10:24.630Z,15.23
2016-04-07T09:11:24.694Z,15.23
2016-04-07T09:12:24.808Z,15.31
2016-04-07T09:13:24.857Z,15.25
2016-04-07T09:14:24.641Z,15.21
2016-04-07T09:15:24.096Z,15.32
2016-04-07T09:16:24.615Z,15.32
2016-04-07T09:17:24.727Z,15.25
2016-04-07T09:18:24.588Z,15.25
2016-04-07T09:19:24.670Z,15.23
2016-04-07T09:20:24.765Z,15.28
2016-04-07T09:21:24.847Z,15.16
2016-04-07T09:22:24.702Z,15.23
2016-04-07T09:23:24.881Z,15.27
2016-04-07T09:24:24.811Z,15.31
2016-04-07T09:25:24.975Z,15.25
2016-04-07T09:26:25.279Z,15.28
2016-04-07T09:27:25.069Z,15.32
2016-04-07T09:28:25.008Z,15.32
2016-04-07T09:29:25.070Z,15.29
2016-04-07T09:30:39.195Z,15.32
2016-04-07T09:31:25.274Z,15.29
2016-04-07T09:32:25.002Z,15.32
2016-04-07T09:33:25.041Z,15.32
2016-04-07T09:34:25.110Z,15.31
2016-04-07T09:35:25.023Z,15.34
2016-04-07T09:36:24.875Z,15.44
2016-04-07T09:37:25.099Z,15.47
2016-04-07T09:38:25.041Z,15.46
2016-04-07T09:39:25.281Z,15.43
2016-04-07T09:40:24.942Z,15.43
2016-04-07T09:41:25.118Z,15.43
2016-04-07T09:42:24.716Z,15.5
2016-04-07T09:43:25.312Z,15.46
2016-04-07T09:44:25.051Z,15.46
2016-04-07T09:45:25.319Z,15.43
2016-04-07T09:46:25.182Z,15.29
2016-04-07T09:47:25.200Z,15.34
2016-04-07T09:48:25.360Z,15.28
2016-04-07T09:49:25.206Z,15.27
2016-04-07T09:50:24.444Z,15.19
2016-04-07T09:51:25.383Z,15.14
2016-04-07T09:52:25.199Z,15.11
2016-04-07T09:53:25.138Z,15.02
2016-04-07T09:54:25.157Z,15.07
2016-04-07T09:55:25.097Z,15.06
2016-04-07T09:56:25.397Z,14.94
2016-04-07T09:57:25.102Z,14.99
2016-04-07T09:58:25.199Z,14.99
2016-04-07T09:59:24.749Z,15.02
2016-04-07T10:00:25.189Z,14.94
2016-04-07T10:01:25.301Z,15.02
2016-04-07T10:02:25.272Z,15.14
2016-04-07T10:03:25.181Z,15.09
2016-04-07T10:04:25.293Z,15.25
2016-04-07T10:05:25.390Z,15.13
2016-04-07T10:06:25.331Z,15.2
2016-04-07T10:07:25.255Z,15.19
2016-04-07T10:08:25.303Z,15.25
2016-04-07T10:09:25.181Z,15.35
2016-04-07T10:10:25.075Z,15.29
2016-04-07T10:11:25.640Z,15.25
2016-04-07T10:12:25.267Z,15.28
2016-04-07T10:13:25.474Z,15.29
2016-04-07T10:14:25.742Z,15.29
2016-04-07T10:15:25.322Z,15.36
2016-04-07T10:16:25.233Z,15.38
2016-04-07T10:17:25.344Z,15.38
2016-04-07T10:18:25.206Z,15.32
2016-04-07T10:19:25.725Z,15.32
2016-04-07T10:20:25.274Z,15.31
2016-04-07T10:21:25.292Z,15.34
2016-04-07T10:22:26.232Z,15.34
2016-04-07T10:23:39.361Z,15.34
2016-04-07T10:24:25.269Z,15.32
2016-04-07T10:25:25.491Z,15.36
2016-04-07T10:26:25.275Z,15.29
2016-04-07T10:27:25.340Z,15.27
2016-04-07T10:28:25.280Z,15.32
2016-04-07T10:29:25.454Z,15.32
2016-04-07T10:30:26.020Z,15.27
2016-04-07T10:31:25.522Z,15.21
2016-04-07T10:32:25.853Z,15.19
2016-04-07T10:33:25.731Z,15.16
2016-04-07T10:34:25.343Z,15.2
2016-04-07T10:35:39.455Z,15.13
2016-04-07T10:36:25.348Z,15.11
2016-04-07T10:37:25.351Z,15.17
2016-04-07T10:38:25.666Z,15.14
2016-04-07T10:39:25.747Z,15.23
2016-04-07T10:40:25.842Z,15.25
2016-04-07T10:41:25.814Z,15.35
2016-04-07T10:42:25.645Z,15.29
2016-04-07T10:43:25.773Z,15.34
2016-04-07T10:44:25.636Z,15.41
2016-04-07T10:45:26.107Z,15.44
2016-04-07T10:46:25.781Z,15.51
2016-04-07T10:47:25.722Z,15.56
2016-04-07T10:48:25.725Z,15.6
2016-04-07T10:49:25.696Z,15.59
2016-04-07T10:50:25.683Z,15.69
2016-04-07T10:51:26.045Z,15.6
2016-04-07T10:52:25.705Z,15.67
2016-04-07T10:53:25.738Z,15.74
2016-04-07T10:54:25.897Z,15.74
2016-04-07T10:55:25.743Z,15.83
2016-04-07T10:56:25.824Z,15.9
2016-04-07T10:57:25.780Z,15.9
2016-04-07T10:58:25.782Z,15.93
2016-04-07T10:59:25.988Z,16.04
2016-04-07T11:00:25.787Z,16.01
2016-04-07T11:01:40.603Z,16
2016-04-07T11:02:25.918Z,16.05
2016-04-07T11:03:25.765Z,15.97
2016-04-07T11:04:26.237Z,16.04
2016-04-07T11:05:25.926Z,15.97
2016-04-07T11:06:25.945Z,16.02
2016-04-07T11:07:25.744Z,16.04
2016-04-07T11:08:26.012Z,15.96
2016-04-07T11:09:25.889Z,16.07
2016-04-07T11:10:26.127Z,16.01
2016-04-07T11:11:26.051Z,16.02
2016-04-07T11:12:26.023Z,16.02
2016-04-07T11:13:26.104Z,15.97
2016-04-07T11:14:39.982Z,15.9
2016-04-07T11:15:26.062Z,15.92
2016-04-07T11:16:25.987Z,15.86
2016-04-07T11:17:26.083Z,15.68
2016-04-07T11:18:26.242Z,15.6
2016-04-07T11:19:26.058Z,15.56
2016-04-07T11:20:26.045Z,15.5
2016-04-07T11:21:26.204Z,15.39
2016-04-07T11:22:39.894Z,15.31
2016-04-07T11:23:26.084Z,15.32
2016-04-07T11:24:26.946Z,15.28
2016-04-07T11:25:26.496Z,15.27
2016-04-07T11:26:25.826Z,15.17
2016-04-07T11:27:25.844Z,15.03
2016-04-07T11:28:25.847Z,15.02
2016-04-07T11:29:25.397Z,14.84
2016-04-07T11:30:26.072Z,14.57
2016-04-07T11:31:25.887Z,14.54
2016-04-07T11:32:25.874Z,14.52
2016-04-07T11:33:25.908Z,14.32
2016-04-07T11:34:25.926Z,14.32
2016-04-07T11:35:25.913Z,14.29
2016-04-07T11:36:25.932Z,14.29
2016-04-07T11:37:25.934Z,14.24
2016-04-07T11:38:25.937Z,14.04
2016-04-07T11:39:26.174Z,14.07
2016-04-07T11:40:25.974Z,14.1
2016-04-07T11:41:26.023Z,14.02
2016-04-07T11:42:26.182Z,14.04
2016-04-07T11:43:25.982Z,14.03
2016-04-07T11:44:25.984Z,13.87
2016-04-07T11:45:26.018Z,13.84
2016-04-07T11:46:25.990Z,13.82
2016-04-07T11:47:26.023Z,13.79
2016-04-07T11:48:26.026Z,13.81
2016-04-07T11:49:26.014Z,13.77
2016-04-07T11:50:26.047Z,13.79
2016-04-07T11:51:26.050Z,13.84
2016-04-07T11:52:26.069Z,13.85
2016-04-07T11:53:26.071Z,14
2016-04-07T11:54:26.074Z,14.06
2016-04-07T11:55:26.749Z,14
2016-04-07T11:56:26.095Z,14.09
2016-04-07T11:57:26.113Z,14.18
2016-04-07T11:58:26.428Z,14.21
2016-04-07T11:59:26.494Z,14.36
2016-04-07T12:00:26.121Z,14.4
2016-04-07T12:01:26.421Z,14.52
2016-04-07T12:02:26.299Z,14.5
2016-04-07T12:03:26.379Z,14.58
2016-04-07T12:04:26.382Z,14.58
2016-04-07T12:05:40.463Z,14.51
2016-04-07T12:06:26.356Z,14.6
2016-04-07T12:07:26.437Z,14.62
2016-04-07T12:08:26.721Z,14.52
2016-04-07T12:09:26.676Z,14.55
2016-04-07T12:10:26.679Z,14.45
2016-04-07T12:11:26.416Z,14.46
2016-04-07T12:12:26.887Z,14.4
2016-04-07T12:13:26.343Z,14.24
2016-04-07T12:14:26.581Z,14.15
2016-04-07T12:15:26.443Z,13.99
2016-04-07T12:16:26.258Z,13.84
2016-04-07T12:17:26.479Z,13.88
2016-04-07T12:18:26.513Z,13.88
2016-04-07T12:19:26.281Z,13.77
2016-04-07T12:20:26.284Z,13.77
2016-04-07T12:21:26.396Z,13.67
2016-04-07T12:22:26.383Z,13.49
2016-04-07T12:23:28.119Z,13.38
2016-04-07T12:24:26.372Z,13.42
2016-04-07T12:25:26.219Z,13.36
2016-04-07T12:26:26.753Z,13.36
2016-04-07T12:27:26.335Z,13.17
2016-04-07T12:28:26.555Z,13.05
2016-04-07T12:29:26.355Z,13.04
2016-04-07T12:30:26.764Z,13
2016-04-07T12:31:26.641Z,12.92
2016-04-07T12:32:27.285Z,12.87
2016-04-07T12:33:26.662Z,12.78
2016-04-07T12:34:26.696Z,12.72
2016-04-07T12:35:26.621Z,12.71
2016-04-07T12:36:26.546Z,12.71
2016-04-07T12:37:26.955Z,12.71
2016-04-07T12:38:26.645Z,12.7
2016-04-07T12:39:26.492Z,12.79
2016-04-07T12:40:27.181Z,12.59
2016-04-07T12:41:27.653Z,12.79
2016-04-07T12:42:26.937Z,12.79
2016-04-07T12:43:26.737Z,12.85
2016-04-07T12:44:26.771Z,12.87
2016-04-07T12:45:26.742Z,12.86
2016-04-07T12:46:26.839Z,12.96
2016-04-07T12:47:26.606Z,12.97
2016-04-07T12:48:26.719Z,13.01
2016-04-07T12:49:27.080Z,13.1
2016-04-07T12:50:26.755Z,13.08
2016-04-07T12:51:26.820Z,13.2
2016-04-07T12:52:26.744Z,13.22
2016-04-07T12:53:26.170Z,13.32
2016-04-07T12:54:26.750Z,13.44
2016-04-07T12:55:27.128Z,13.38
2016-04-07T12:56:26.228Z,13.46
2016-04-07T12:57:26.793Z,13.55
2016-04-07T12:58:27.249Z,13.54
2016-04-07T12:59:27.048Z,13.62
2016-04-07T13:00:40.816Z,13.77
2016-04-07T13:01:26.710Z,13.67
2016-04-07T13:02:26.994Z,13.71
2016-04-07T13:03:26.809Z,13.84
2016-04-07T13:04:26.905Z,13.85
2016-04-07T13:05:26.924Z,13.91
2016-04-07T13:06:26.926Z,13.91
2016-04-07T13:07:26.851Z,14.03
2016-04-07T13:08:26.869Z,13.95
2016-04-07T13:09:27.106Z,14.04
2016-04-07T13:11:27.018Z,14.06
2016-04-07T13:12:27.051Z,14.21
2016-04-07T13:13:27.071Z,14.17
2016-04-07T13:14:26.448Z,14.25